This is the latest recevied weather packets stored in our database for station/object VE3EP-1. If no packets are shown the sender has not sent any weather packets the latest 1 day(s).
| Time | Temp. | Humidity | Pressure | Rain* | Wind** | Luminosity | Snow |
|---|---|---|---|---|---|---|---|
| 1777973528 | 13.89° C | 78% | 1002.4 hPa | 0 mm | 2.24 m/s, 259° | - | - |
| 1777972928 | 12.22° C | 84% | 1002.6 hPa | 0 mm | 0.89 m/s, 254° | - | - |
| 1777972332 | 12.22° C | 84% | 1002.9 hPa | 0 mm | 1.79 m/s, 261° | - | - |
| 1777971129 | 12.22° C | 85% | 1002.8 hPa | 1.27 mm | 0.89 m/s, 272° | - | - |
| 1777970529 | 12.22° C | 85% | 1002.8 hPa | 1.52 mm | 0.45 m/s, 258° | - | - |
| 1777969929 | 12.22° C | 84% | 1002.9 hPa | 1.52 mm | 0.89 m/s, 256° | - | - |
| 1777969328 | 13.33° C | 83% | 1002.8 hPa | 1.52 mm | 1.34 m/s, 265° | - | - |
| 1777968728 | 12.78° C | 83% | 1002.9 hPa | 1.52 mm | 1.79 m/s, 256° | - | - |
| 1777968128 | 13.89° C | 79% | 1003.2 hPa | 1.02 mm | 2.24 m/s, 266° | - | - |
| 1777967528 | 13.89° C | 78% | 1003.3 hPa | 0.25 mm | 1.79 m/s, 262° | - | - |
| 1777966928 | 15.56° C | 71% | 1003.4 hPa | 0 mm | 1.79 m/s, 277° | - | - |
| 1777966328 | 15° C | 70% | 1003.4 hPa | 0 mm | 2.24 m/s, 264° | - | - |
| 1777965729 | 15° C | 71% | 1003.7 hPa | 0 mm | 2.24 m/s, 268° | - | - |
| 1777965128 | 15° C | 70% | 1003.3 hPa | 0 mm | 2.68 m/s, 269° | - | - |
| 1777964528 | 15.56° C | 69% | 1003.5 hPa | 0 mm | 2.68 m/s, 266° | - | - |
| 1777963929 | 15.56° C | 68% | 1003.4 hPa | 0 mm | 2.24 m/s, 267° | - | - |
| 1777963328 | 15.56° C | 68% | 1003.6 hPa | 0 mm | 2.68 m/s, 277° | - | - |
| 1777962728 | 15.56° C | 67% | 1003.4 hPa | 0 mm | 2.68 m/s, 272° | - | - |
| 1777961528 | 15° C | 68% | 1003.3 hPa | 1.27 mm | 3.58 m/s, 271° | - | - |
| 1777960929 | 14.44° C | 68% | 1003.1 hPa | 2.54 mm | 3.58 m/s, 268° | - | - |
* Rain latest hour (hover to see other rain measurements)
** Current wind speed in m/s (hover to see current wind gust speed)